sensor_id;sensor_type;location;lat;lon;timestamp;P1;durP1;ratioP1;P2;durP2;ratioP2
79054;SDS011;68452;47.186;-1.528;2023-06-14T00:00:58;7.27;;;3.03;;
79054;SDS011;68452;47.186;-1.528;2023-06-14T00:03:24;3.85;;;1.45;;
79054;SDS011;68452;47.186;-1.528;2023-06-14T00:05:51;7.95;;;1.80;;
79054;SDS011;68452;47.186;-1.528;2023-06-14T00:08:16;7.82;;;1.73;;
79054;SDS011;68452;47.186;-1.528;2023-06-14T00:10:44;3.50;;;1.40;;
79054;SDS011;68452;47.186;-1.528;2023-06-14T00:13:10;5.80;;;1.63;;
79054;SDS011;68452;47.186;-1.528;2023-06-14T00:15:36;5.28;;;1.75;;
79054;SDS011;68452;47.186;-1.528;2023-06-14T00:18:02;4.47;;;1.90;;
79054;SDS011;68452;47.186;-1.528;2023-06-14T00:20:29;5.78;;;2.08;;
79054;SDS011;68452;47.186;-1.528;2023-06-14T00:22:57;5.27;;;1.60;;
79054;SDS011;68452;47.186;-1.528;2023-06-14T00:25:26;6.15;;;2.25;;
79054;SDS011;68452;47.186;-1.528;2023-06-14T00:27:53;4.20;;;2.03;;
79054;SDS011;68452;47.186;-1.528;2023-06-14T00:30:19;4.28;;;2.15;;
79054;SDS011;68452;47.186;-1.528;2023-06-14T00:32:45;6.75;;;2.00;;
79054;SDS011;68452;47.186;-1.528;2023-06-14T00:35:12;5.93;;;2.43;;
79054;SDS011;68452;47.186;-1.528;2023-06-14T00:37:38;4.72;;;2.03;;
79054;SDS011;68452;47.186;-1.528;2023-06-14T00:40:04;4.93;;;2.10;;
79054;SDS011;68452;47.186;-1.528;2023-06-14T00:42:30;4.22;;;1.77;;
79054;SDS011;68452;47.186;-1.528;2023-06-14T00:44:56;4.97;;;1.93;;
79054;SDS011;68452;47.186;-1.528;2023-06-14T00:47:23;6.93;;;1.80;;
79054;SDS011;68452;47.186;-1.528;2023-06-14T00:49:51;6.40;;;1.52;;
79054;SDS011;68452;47.186;-1.528;2023-06-14T00:52:20;6.82;;;2.28;;
79054;SDS011;68452;47.186;-1.528;2023-06-14T00:54:49;4.57;;;1.85;;
79054;SDS011;68452;47.186;-1.528;2023-06-14T00:57:15;3.97;;;1.80;;
79054;SDS011;68452;47.186;-1.528;2023-06-14T00:59:42;5.45;;;2.30;;
79054;SDS011;68452;47.186;-1.528;2023-06-14T01:02:11;4.45;;;1.90;;
79054;SDS011;68452;47.186;-1.528;2023-06-14T01:04:38;3.90;;;1.40;;
79054;SDS011;68452;47.186;-1.528;2023-06-14T01:12:18;4.60;;;2.00;;
79054;SDS011;68452;47.186;-1.528;2023-06-14T01:14:57;4.53;;;2.10;;
79054;SDS011;68452;47.186;-1.528;2023-06-14T01:17:26;6.53;;;2.65;;
79054;SDS011;68452;47.186;-1.528;2023-06-14T01:19:57;6.70;;;2.60;;
79054;SDS011;68452;47.186;-1.528;2023-06-14T01:22:28;5.87;;;2.23;;
79054;SDS011;68452;47.186;-1.528;2023-06-14T01:24:55;6.18;;;2.70;;
79054;SDS011;68452;47.186;-1.528;2023-06-14T01:27:23;5.18;;;2.22;;
79054;SDS011;68452;47.186;-1.528;2023-06-14T01:29:53;4.35;;;2.65;;
79054;SDS011;68452;47.186;-1.528;2023-06-14T01:32:24;3.77;;;1.97;;
79054;SDS011;68452;47.186;-1.528;2023-06-14T01:34:53;4.25;;;1.90;;
79054;SDS011;68452;47.186;-1.528;2023-06-14T01:37:19;5.03;;;2.15;;
79054;SDS011;68452;47.186;-1.528;2023-06-14T01:39:46;6.82;;;2.25;;
79054;SDS011;68452;47.186;-1.528;2023-06-14T01:42:13;5.03;;;2.33;;
79054;SDS011;68452;47.186;-1.528;2023-06-14T01:44:40;6.80;;;2.23;;
79054;SDS011;68452;47.186;-1.528;2023-06-14T01:47:08;10.52;;;2.88;;
79054;SDS011;68452;47.186;-1.528;2023-06-14T01:49:34;8.02;;;3.58;;
79054;SDS011;68452;47.186;-1.528;2023-06-14T01:52:00;7.20;;;2.47;;
79054;SDS011;68452;47.186;-1.528;2023-06-14T01:54:26;4.17;;;2.30;;
79054;SDS011;68452;47.186;-1.528;2023-06-14T01:56:54;5.72;;;2.58;;
79054;SDS011;68452;47.186;-1.528;2023-06-14T01:59:20;5.55;;;2.65;;
79054;SDS011;68452;47.186;-1.528;2023-06-14T02:01:45;4.88;;;2.53;;
79054;SDS011;68452;47.186;-1.528;2023-06-14T02:04:11;15.43;;;3.43;;
79054;SDS011;68452;47.186;-1.528;2023-06-14T02:06:37;5.65;;;2.88;;
79054;SDS011;68452;47.186;-1.528;2023-06-14T02:09:03;8.20;;;3.00;;
79054;SDS011;68452;47.186;-1.528;2023-06-14T02:11:29;5.45;;;2.67;;
79054;SDS011;68452;47.186;-1.528;2023-06-14T02:13:55;9.45;;;2.25;;
79054;SDS011;68452;47.186;-1.528;2023-06-14T02:16:21;5.50;;;2.10;;
79054;SDS011;68452;47.186;-1.528;2023-06-14T02:18:47;7.37;;;3.30;;
79054;SDS011;68452;47.186;-1.528;2023-06-14T02:21:13;6.93;;;3.60;;
79054;SDS011;68452;47.186;-1.528;2023-06-14T02:23:39;5.97;;;2.83;;
79054;SDS011;68452;47.186;-1.528;2023-06-14T02:26:06;6.05;;;2.53;;
79054;SDS011;68452;47.186;-1.528;2023-06-14T02:28:32;6.60;;;2.83;;
79054;SDS011;68452;47.186;-1.528;2023-06-14T02:30:58;6.13;;;3.27;;
79054;SDS011;68452;47.186;-1.528;2023-06-14T02:33:24;5.25;;;2.25;;
79054;SDS011;68452;47.186;-1.528;2023-06-14T02:35:50;7.00;;;3.50;;
79054;SDS011;68452;47.186;-1.528;2023-06-14T02:38:18;6.65;;;2.45;;
79054;SDS011;68452;47.186;-1.528;2023-06-14T02:40:43;5.63;;;2.40;;
79054;SDS011;68452;47.186;-1.528;2023-06-14T02:43:09;9.90;;;4.03;;
79054;SDS011;68452;47.186;-1.528;2023-06-14T02:45:35;5.50;;;2.80;;
79054;SDS011;68452;47.186;-1.528;2023-06-14T02:48:01;6.87;;;3.13;;
79054;SDS011;68452;47.186;-1.528;2023-06-14T02:50:27;9.15;;;2.50;;
79054;SDS011;68452;47.186;-1.528;2023-06-14T02:52:53;6.32;;;2.72;;
79054;SDS011;68452;47.186;-1.528;2023-06-14T02:55:21;5.30;;;2.67;;
79054;SDS011;68452;47.186;-1.528;2023-06-14T02:57:46;6.97;;;2.13;;
79054;SDS011;68452;47.186;-1.528;2023-06-14T03:00:13;9.60;;;3.78;;
79054;SDS011;68452;47.186;-1.528;2023-06-14T03:02:39;6.13;;;2.70;;
79054;SDS011;68452;47.186;-1.528;2023-06-14T03:05:07;7.97;;;3.15;;
79054;SDS011;68452;47.186;-1.528;2023-06-14T03:07:35;17.23;;;3.90;;
79054;SDS011;68452;47.186;-1.528;2023-06-14T03:10:06;6.60;;;2.57;;
79054;SDS011;68452;47.186;-1.528;2023-06-14T03:12:34;9.10;;;3.72;;
79054;SDS011;68452;47.186;-1.528;2023-06-14T03:15:00;8.68;;;3.92;;
79054;SDS011;68452;47.186;-1.528;2023-06-14T03:17:26;10.02;;;4.13;;
79054;SDS011;68452;47.186;-1.528;2023-06-14T03:19:55;9.80;;;3.75;;
79054;SDS011;68452;47.186;-1.528;2023-06-14T03:22:20;6.97;;;3.30;;
79054;SDS011;68452;47.186;-1.528;2023-06-14T03:24:47;7.43;;;3.20;;
79054;SDS011;68452;47.186;-1.528;2023-06-14T03:27:13;8.27;;;3.90;;
79054;SDS011;68452;47.186;-1.528;2023-06-14T03:29:39;8.23;;;4.05;;
79054;SDS011;68452;47.186;-1.528;2023-06-14T03:32:05;8.27;;;3.60;;
79054;SDS011;68452;47.186;-1.528;2023-06-14T03:34:31;6.63;;;3.25;;
79054;SDS011;68452;47.186;-1.528;2023-06-14T03:36:56;9.05;;;4.25;;
79054;SDS011;68452;47.186;-1.528;2023-06-14T03:39:22;8.53;;;3.97;;
79054;SDS011;68452;47.186;-1.528;2023-06-14T03:41:48;7.85;;;3.40;;
79054;SDS011;68452;47.186;-1.528;2023-06-14T03:44:15;7.50;;;3.40;;
79054;SDS011;68452;47.186;-1.528;2023-06-14T03:46:42;18.40;;;4.10;;
79054;SDS011;68452;47.186;-1.528;2023-06-14T03:49:08;7.30;;;3.28;;
79054;SDS011;68452;47.186;-1.528;2023-06-14T03:51:35;7.45;;;3.03;;
79054;SDS011;68452;47.186;-1.528;2023-06-14T03:54:01;7.53;;;3.37;;
79054;SDS011;68452;47.186;-1.528;2023-06-14T03:56:27;7.27;;;3.57;;
79054;SDS011;68452;47.186;-1.528;2023-06-14T03:58:53;6.65;;;3.33;;
79054;SDS011;68452;47.186;-1.528;2023-06-14T04:01:18;8.30;;;3.63;;
79054;SDS011;68452;47.186;-1.528;2023-06-14T04:03:45;7.47;;;3.42;;
79054;SDS011;68452;47.186;-1.528;2023-06-14T04:06:11;11.27;;;4.07;;
79054;SDS011;68452;47.186;-1.528;2023-06-14T04:08:37;9.40;;;3.25;;
79054;SDS011;68452;47.186;-1.528;2023-06-14T04:11:04;7.65;;;3.53;;
79054;SDS011;68452;47.186;-1.528;2023-06-14T04:13:30;10.57;;;4.10;;
79054;SDS011;68452;47.186;-1.528;2023-06-14T04:15:57;7.53;;;3.90;;
79054;SDS011;68452;47.186;-1.528;2023-06-14T04:18:23;10.38;;;3.67;;
79054;SDS011;68452;47.186;-1.528;2023-06-14T04:20:49;10.30;;;4.32;;
79054;SDS011;68452;47.186;-1.528;2023-06-14T04:23:15;11.10;;;4.50;;
79054;SDS011;68452;47.186;-1.528;2023-06-14T04:25:46;8.15;;;3.95;;
79054;SDS011;68452;47.186;-1.528;2023-06-14T04:28:13;8.65;;;5.25;;
79054;SDS011;68452;47.186;-1.528;2023-06-14T04:30:43;10.48;;;4.85;;
79054;SDS011;68452;47.186;-1.528;2023-06-14T04:33:10;7.35;;;4.78;;
79054;SDS011;68452;47.186;-1.528;2023-06-14T04:35:36;5.33;;;2.80;;
79054;SDS011;68452;47.186;-1.528;2023-06-14T04:38:04;15.25;;;4.05;;
79054;SDS011;68452;47.186;-1.528;2023-06-14T04:40:30;10.52;;;5.00;;
79054;SDS011;68452;47.186;-1.528;2023-06-14T04:42:58;9.13;;;4.03;;
79054;SDS011;68452;47.186;-1.528;2023-06-14T04:45:24;7.73;;;4.47;;
79054;SDS011;68452;47.186;-1.528;2023-06-14T04:47:58;9.45;;;4.30;;
79054;SDS011;68452;47.186;-1.528;2023-06-14T04:50:24;9.02;;;3.97;;
79054;SDS011;68452;47.186;-1.528;2023-06-14T04:52:50;9.77;;;4.47;;
79054;SDS011;68452;47.186;-1.528;2023-06-14T04:55:18;7.50;;;3.95;;
79054;SDS011;68452;47.186;-1.528;2023-06-14T04:57:45;8.77;;;4.33;;
79054;SDS011;68452;47.186;-1.528;2023-06-14T05:00:10;12.32;;;5.68;;
79054;SDS011;68452;47.186;-1.528;2023-06-14T05:02:37;9.82;;;3.90;;
79054;SDS011;68452;47.186;-1.528;2023-06-14T05:05:03;13.27;;;5.50;;
79054;SDS011;68452;47.186;-1.528;2023-06-14T05:07:32;11.55;;;5.28;;
79054;SDS011;68452;47.186;-1.528;2023-06-14T05:10:01;8.93;;;4.10;;
79054;SDS011;68452;47.186;-1.528;2023-06-14T05:12:27;7.93;;;4.15;;
79054;SDS011;68452;47.186;-1.528;2023-06-14T05:14:54;11.00;;;5.28;;
79054;SDS011;68452;47.186;-1.528;2023-06-14T05:17:20;10.88;;;4.60;;
79054;SDS011;68452;47.186;-1.528;2023-06-14T05:19:46;9.33;;;5.23;;
79054;SDS011;68452;47.186;-1.528;2023-06-14T05:22:11;11.65;;;5.32;;
79054;SDS011;68452;47.186;-1.528;2023-06-14T05:24:37;10.68;;;5.55;;
79054;SDS011;68452;47.186;-1.528;2023-06-14T05:27:03;12.07;;;4.90;;
79054;SDS011;68452;47.186;-1.528;2023-06-14T05:29:30;10.07;;;4.03;;
79054;SDS011;68452;47.186;-1.528;2023-06-14T05:31:56;12.70;;;5.63;;
79054;SDS011;68452;47.186;-1.528;2023-06-14T05:34:22;11.77;;;4.97;;
79054;SDS011;68452;47.186;-1.528;2023-06-14T05:36:47;10.75;;;5.22;;
79054;SDS011;68452;47.186;-1.528;2023-06-14T05:39:13;11.67;;;5.47;;
79054;SDS011;68452;47.186;-1.528;2023-06-14T05:41:39;9.50;;;5.23;;
79054;SDS011;68452;47.186;-1.528;2023-06-14T05:44:05;11.73;;;6.10;;
79054;SDS011;68452;47.186;-1.528;2023-06-14T05:46:32;12.25;;;5.68;;
79054;SDS011;68452;47.186;-1.528;2023-06-14T05:48:58;9.07;;;5.00;;
79054;SDS011;68452;47.186;-1.528;2023-06-14T05:51:24;11.35;;;5.53;;
79054;SDS011;68452;47.186;-1.528;2023-06-14T05:53:50;11.48;;;5.00;;
79054;SDS011;68452;47.186;-1.528;2023-06-14T05:56:16;16.33;;;5.70;;
79054;SDS011;68452;47.186;-1.528;2023-06-14T05:58:43;13.27;;;5.30;;
79054;SDS011;68452;47.186;-1.528;2023-06-14T06:01:09;11.40;;;5.30;;
79054;SDS011;68452;47.186;-1.528;2023-06-14T06:03:35;9.10;;;6.15;;
79054;SDS011;68452;47.186;-1.528;2023-06-14T06:06:01;10.50;;;5.20;;
79054;SDS011;68452;47.186;-1.528;2023-06-14T06:08:28;11.23;;;5.80;;
79054;SDS011;68452;47.186;-1.528;2023-06-14T06:10:55;9.73;;;4.43;;
79054;SDS011;68452;47.186;-1.528;2023-06-14T06:13:21;10.80;;;5.30;;
79054;SDS011;68452;47.186;-1.528;2023-06-14T06:15:47;12.10;;;5.15;;
79054;SDS011;68452;47.186;-1.528;2023-06-14T06:18:13;11.17;;;5.67;;
79054;SDS011;68452;47.186;-1.528;2023-06-14T06:20:39;13.57;;;5.63;;
79054;SDS011;68452;47.186;-1.528;2023-06-14T06:23:05;10.73;;;4.78;;
79054;SDS011;68452;47.186;-1.528;2023-06-14T06:25:30;9.17;;;4.50;;
79054;SDS011;68452;47.186;-1.528;2023-06-14T06:27:57;14.07;;;5.80;;
79054;SDS011;68452;47.186;-1.528;2023-06-14T06:30:23;13.40;;;5.65;;
79054;SDS011;68452;47.186;-1.528;2023-06-14T06:32:50;10.48;;;5.45;;
79054;SDS011;68452;47.186;-1.528;2023-06-14T06:35:16;13.27;;;5.60;;
79054;SDS011;68452;47.186;-1.528;2023-06-14T06:37:42;15.43;;;6.32;;
79054;SDS011;68452;47.186;-1.528;2023-06-14T06:40:08;11.20;;;6.03;;
79054;SDS011;68452;47.186;-1.528;2023-06-14T06:42:35;14.20;;;7.50;;
79054;SDS011;68452;47.186;-1.528;2023-06-14T06:45:00;11.73;;;5.80;;
79054;SDS011;68452;47.186;-1.528;2023-06-14T06:47:26;19.48;;;5.78;;
79054;SDS011;68452;47.186;-1.528;2023-06-14T06:49:52;11.15;;;5.53;;
79054;SDS011;68452;47.186;-1.528;2023-06-14T06:52:18;14.15;;;5.72;;
79054;SDS011;68452;47.186;-1.528;2023-06-14T06:54:44;11.77;;;5.63;;
79054;SDS011;68452;47.186;-1.528;2023-06-14T06:57:10;10.68;;;5.47;;
79054;SDS011;68452;47.186;-1.528;2023-06-14T06:59:36;12.95;;;5.93;;
79054;SDS011;68452;47.186;-1.528;2023-06-14T07:02:02;12.00;;;5.93;;
79054;SDS011;68452;47.186;-1.528;2023-06-14T07:04:28;8.47;;;5.00;;
79054;SDS011;68452;47.186;-1.528;2023-06-14T07:06:54;11.30;;;5.80;;
79054;SDS011;68452;47.186;-1.528;2023-06-14T07:09:20;12.35;;;5.55;;
79054;SDS011;68452;47.186;-1.528;2023-06-14T07:11:46;11.53;;;5.77;;
79054;SDS011;68452;47.186;-1.528;2023-06-14T07:14:12;13.80;;;7.73;;
79054;SDS011;68452;47.186;-1.528;2023-06-14T07:16:39;11.98;;;5.35;;
79054;SDS011;68452;47.186;-1.528;2023-06-14T07:19:06;13.23;;;4.93;;
79054;SDS011;68452;47.186;-1.528;2023-06-14T07:21:32;14.57;;;6.18;;
79054;SDS011;68452;47.186;-1.528;2023-06-14T07:23:58;8.37;;;5.07;;
79054;SDS011;68452;47.186;-1.528;2023-06-14T07:26:23;9.40;;;4.50;;
79054;SDS011;68452;47.186;-1.528;2023-06-14T07:28:50;11.27;;;5.43;;
79054;SDS011;68452;47.186;-1.528;2023-06-14T07:31:16;8.25;;;4.45;;
79054;SDS011;68452;47.186;-1.528;2023-06-14T07:33:43;7.85;;;4.43;;
79054;SDS011;68452;47.186;-1.528;2023-06-14T07:36:09;11.93;;;5.13;;
79054;SDS011;68452;47.186;-1.528;2023-06-14T07:38:35;7.00;;;4.07;;
79054;SDS011;68452;47.186;-1.528;2023-06-14T07:41:01;15.02;;;5.10;;
79054;SDS011;68452;47.186;-1.528;2023-06-14T07:43:28;10.90;;;4.07;;
79054;SDS011;68452;47.186;-1.528;2023-06-14T07:45:54;12.17;;;4.97;;
79054;SDS011;68452;47.186;-1.528;2023-06-14T07:48:20;9.70;;;5.20;;
79054;SDS011;68452;47.186;-1.528;2023-06-14T07:50:46;14.45;;;5.35;;
79054;SDS011;68452;47.186;-1.528;2023-06-14T07:53:12;9.88;;;4.63;;
79054;SDS011;68452;47.186;-1.528;2023-06-14T07:55:38;9.57;;;5.90;;
79054;SDS011;68452;47.186;-1.528;2023-06-14T07:58:04;12.32;;;4.93;;
79054;SDS011;68452;47.186;-1.528;2023-06-14T08:00:33;11.35;;;4.60;;
79054;SDS011;68452;47.186;-1.528;2023-06-14T08:02:59;11.60;;;5.28;;
79054;SDS011;68452;47.186;-1.528;2023-06-14T08:05:26;7.43;;;3.90;;
79054;SDS011;68452;47.186;-1.528;2023-06-14T08:07:52;11.63;;;4.60;;
79054;SDS011;68452;47.186;-1.528;2023-06-14T08:10:19;12.65;;;5.00;;
79054;SDS011;68452;47.186;-1.528;2023-06-14T08:12:45;11.90;;;3.92;;
79054;SDS011;68452;47.186;-1.528;2023-06-14T08:15:11;9.88;;;4.43;;
79054;SDS011;68452;47.186;-1.528;2023-06-14T08:17:37;12.43;;;4.67;;
79054;SDS011;68452;47.186;-1.528;2023-06-14T08:20:04;11.45;;;3.88;;
79054;SDS011;68452;47.186;-1.528;2023-06-14T08:22:31;9.75;;;4.22;;
79054;SDS011;68452;47.186;-1.528;2023-06-14T08:24:59;12.43;;;4.75;;
79054;SDS011;68452;47.186;-1.528;2023-06-14T08:27:26;12.33;;;5.10;;
79054;SDS011;68452;47.186;-1.528;2023-06-14T08:29:52;11.85;;;4.07;;
79054;SDS011;68452;47.186;-1.528;2023-06-14T08:32:19;10.20;;;3.70;;
79054;SDS011;68452;47.186;-1.528;2023-06-14T08:34:45;7.78;;;4.28;;
79054;SDS011;68452;47.186;-1.528;2023-06-14T08:37:11;9.93;;;4.30;;
79054;SDS011;68452;47.186;-1.528;2023-06-14T08:39:37;6.97;;;3.80;;
79054;SDS011;68452;47.186;-1.528;2023-06-14T08:42:03;8.80;;;4.22;;
79054;SDS011;68452;47.186;-1.528;2023-06-14T08:44:32;9.02;;;3.65;;
79054;SDS011;68452;47.186;-1.528;2023-06-14T08:46:59;9.20;;;4.10;;
79054;SDS011;68452;47.186;-1.528;2023-06-14T08:49:25;15.83;;;4.40;;
79054;SDS011;68452;47.186;-1.528;2023-06-14T08:51:58;7.80;;;3.50;;
79054;SDS011;68452;47.186;-1.528;2023-06-14T08:54:27;10.02;;;4.15;;
79054;SDS011;68452;47.186;-1.528;2023-06-14T08:56:56;9.30;;;3.13;;
79054;SDS011;68452;47.186;-1.528;2023-06-14T08:59:26;7.80;;;3.60;;
79054;SDS011;68452;47.186;-1.528;2023-06-14T09:01:52;9.40;;;3.37;;
79054;SDS011;68452;47.186;-1.528;2023-06-14T09:04:26;11.38;;;4.72;;
79054;SDS011;68452;47.186;-1.528;2023-06-14T09:06:55;8.65;;;3.42;;
79054;SDS011;68452;47.186;-1.528;2023-06-14T09:09:21;9.93;;;3.67;;
79054;SDS011;68452;47.186;-1.528;2023-06-14T09:11:51;7.40;;;3.28;;
79054;SDS011;68452;47.186;-1.528;2023-06-14T09:14:21;6.07;;;2.70;;
79054;SDS011;68452;47.186;-1.528;2023-06-14T09:16:51;11.68;;;4.30;;
79054;SDS011;68452;47.186;-1.528;2023-06-14T09:19:21;6.75;;;2.90;;
79054;SDS011;68452;47.186;-1.528;2023-06-14T09:21:49;8.30;;;3.25;;
79054;SDS011;68452;47.186;-1.528;2023-06-14T09:24:17;5.90;;;2.95;;
79054;SDS011;68452;47.186;-1.528;2023-06-14T09:26:46;7.07;;;2.83;;
79054;SDS011;68452;47.186;-1.528;2023-06-14T09:29:12;5.68;;;2.25;;
79054;SDS011;68452;47.186;-1.528;2023-06-14T09:31:38;6.50;;;3.00;;
79054;SDS011;68452;47.186;-1.528;2023-06-14T09:34:04;7.30;;;2.95;;
79054;SDS011;68452;47.186;-1.528;2023-06-14T09:36:31;8.00;;;2.57;;
79054;SDS011;68452;47.186;-1.528;2023-06-14T09:38:58;9.15;;;2.53;;
79054;SDS011;68452;47.186;-1.528;2023-06-14T09:41:38;7.40;;;2.65;;
79054;SDS011;68452;47.186;-1.528;2023-06-14T09:44:07;5.25;;;2.50;;
79054;SDS011;68452;47.186;-1.528;2023-06-14T09:46:33;5.55;;;2.28;;
79054;SDS011;68452;47.186;-1.528;2023-06-14T09:49:00;6.30;;;1.90;;
79054;SDS011;68452;47.186;-1.528;2023-06-14T09:51:27;7.22;;;1.83;;
79054;SDS011;68452;47.186;-1.528;2023-06-14T09:54:01;4.20;;;1.85;;
79054;SDS011;68452;47.186;-1.528;2023-06-14T09:56:31;4.88;;;1.88;;
79054;SDS011;68452;47.186;-1.528;2023-06-14T09:59:00;7.38;;;2.78;;
79054;SDS011;68452;47.186;-1.528;2023-06-14T10:01:30;5.10;;;1.90;;
79054;SDS011;68452;47.186;-1.528;2023-06-14T10:04:06;6.10;;;3.30;;
79054;SDS011;68452;47.186;-1.528;2023-06-14T10:06:35;5.25;;;1.58;;
79054;SDS011;68452;47.186;-1.528;2023-06-14T10:09:04;5.32;;;1.38;;
79054;SDS011;68452;47.186;-1.528;2023-06-14T10:11:32;6.45;;;2.17;;
79054;SDS011;68452;47.186;-1.528;2023-06-14T10:14:00;4.53;;;1.97;;
79054;SDS011;68452;47.186;-1.528;2023-06-14T10:19:25;6.47;;;1.90;;
79054;SDS011;68452;47.186;-1.528;2023-06-14T10:22:04;6.00;;;1.83;;
79054;SDS011;68452;47.186;-1.528;2023-06-14T10:24:37;4.47;;;1.90;;
79054;SDS011;68452;47.186;-1.528;2023-06-14T10:27:07;5.40;;;2.10;;
79054;SDS011;68452;47.186;-1.528;2023-06-14T10:32:21;7.90;;;2.47;;
79054;SDS011;68452;47.186;-1.528;2023-06-14T10:34:53;4.43;;;2.33;;
79054;SDS011;68452;47.186;-1.528;2023-06-14T10:37:24;5.45;;;2.13;;
79054;SDS011;68452;47.186;-1.528;2023-06-14T10:39:50;5.77;;;2.30;;
79054;SDS011;68452;47.186;-1.528;2023-06-14T10:42:16;8.43;;;1.88;;
79054;SDS011;68452;47.186;-1.528;2023-06-14T10:44:43;8.77;;;2.03;;
79054;SDS011;68452;47.186;-1.528;2023-06-14T10:47:26;4.38;;;1.73;;
79054;SDS011;68452;47.186;-1.528;2023-06-14T10:50:10;5.65;;;1.77;;
79054;SDS011;68452;47.186;-1.528;2023-06-14T10:52:42;5.17;;;1.83;;
79054;SDS011;68452;47.186;-1.528;2023-06-14T10:55:12;4.93;;;1.42;;
79054;SDS011;68452;47.186;-1.528;2023-06-14T10:57:46;5.15;;;2.00;;
79054;SDS011;68452;47.186;-1.528;2023-06-14T11:00:17;6.20;;;3.22;;
79054;SDS011;68452;47.186;-1.528;2023-06-14T11:11:17;4.55;;;2.20;;
79054;SDS011;68452;47.186;-1.528;2023-06-14T11:13:46;9.25;;;3.03;;
79054;SDS011;68452;47.186;-1.528;2023-06-14T11:16:15;4.60;;;2.03;;
79054;SDS011;68452;47.186;-1.528;2023-06-14T11:18:44;4.15;;;1.80;;
79054;SDS011;68452;47.186;-1.528;2023-06-14T11:21:10;4.45;;;1.77;;
79054;SDS011;68452;47.186;-1.528;2023-06-14T11:23:40;5.10;;;2.28;;
79054;SDS011;68452;47.186;-1.528;2023-06-14T11:26:06;6.43;;;2.60;;
79054;SDS011;68452;47.186;-1.528;2023-06-14T11:28:38;5.43;;;2.13;;
79054;SDS011;68452;47.186;-1.528;2023-06-14T11:31:05;4.30;;;1.63;;
79054;SDS011;68452;47.186;-1.528;2023-06-14T11:33:31;4.30;;;1.80;;
79054;SDS011;68452;47.186;-1.528;2023-06-14T11:35:57;4.53;;;1.67;;
79054;SDS011;68452;47.186;-1.528;2023-06-14T11:38:23;3.35;;;1.50;;
79054;SDS011;68452;47.186;-1.528;2023-06-14T11:40:50;7.72;;;1.65;;
79054;SDS011;68452;47.186;-1.528;2023-06-14T11:43:15;4.85;;;1.98;;
79054;SDS011;68452;47.186;-1.528;2023-06-14T11:45:42;3.40;;;1.33;;
79054;SDS011;68452;47.186;-1.528;2023-06-14T11:48:08;3.78;;;1.52;;
79054;SDS011;68452;47.186;-1.528;2023-06-14T11:50:37;3.97;;;1.63;;
79054;SDS011;68452;47.186;-1.528;2023-06-14T11:53:03;5.88;;;2.20;;
79054;SDS011;68452;47.186;-1.528;2023-06-14T11:55:36;5.10;;;2.07;;
79054;SDS011;68452;47.186;-1.528;2023-06-14T11:58:03;3.20;;;1.40;;
79054;SDS011;68452;47.186;-1.528;2023-06-14T12:00:29;5.03;;;1.67;;
79054;SDS011;68452;47.186;-1.528;2023-06-14T12:02:56;3.65;;;1.20;;
79054;SDS011;68452;47.186;-1.528;2023-06-14T12:05:22;3.83;;;1.48;;
79054;SDS011;68452;47.186;-1.528;2023-06-14T12:07:48;5.27;;;1.43;;
79054;SDS011;68452;47.186;-1.528;2023-06-14T12:10:15;4.25;;;1.50;;
79054;SDS011;68452;47.186;-1.528;2023-06-14T12:12:42;5.68;;;1.65;;
79054;SDS011;68452;47.186;-1.528;2023-06-14T12:15:08;3.47;;;1.63;;
79054;SDS011;68452;47.186;-1.528;2023-06-14T12:17:37;3.40;;;1.53;;
79054;SDS011;68452;47.186;-1.528;2023-06-14T12:20:09;6.88;;;2.42;;
79054;SDS011;68452;47.186;-1.528;2023-06-14T12:22:55;4.10;;;1.70;;
79054;SDS011;68452;47.186;-1.528;2023-06-14T12:25:30;3.40;;;1.85;;
79054;SDS011;68452;47.186;-1.528;2023-06-14T12:28:04;4.40;;;1.98;;
79054;SDS011;68452;47.186;-1.528;2023-06-14T12:30:30;3.87;;;1.63;;
79054;SDS011;68452;47.186;-1.528;2023-06-14T12:32:56;4.78;;;1.83;;
79054;SDS011;68452;47.186;-1.528;2023-06-14T12:35:22;5.18;;;1.60;;
79054;SDS011;68452;47.186;-1.528;2023-06-14T12:37:48;8.02;;;2.05;;
79054;SDS011;68452;47.186;-1.528;2023-06-14T12:40:14;3.13;;;1.27;;
79054;SDS011;68452;47.186;-1.528;2023-06-14T12:42:41;3.23;;;2.00;;
79054;SDS011;68452;47.186;-1.528;2023-06-14T12:45:08;5.90;;;2.10;;
79054;SDS011;68452;47.186;-1.528;2023-06-14T12:47:34;6.72;;;2.22;;
79054;SDS011;68452;47.186;-1.528;2023-06-14T12:50:00;5.13;;;2.03;;
79054;SDS011;68452;47.186;-1.528;2023-06-14T12:52:26;4.00;;;1.90;;
79054;SDS011;68452;47.186;-1.528;2023-06-14T12:54:52;3.85;;;1.88;;
79054;SDS011;68452;47.186;-1.528;2023-06-14T12:57:18;4.60;;;2.00;;
79054;SDS011;68452;47.186;-1.528;2023-06-14T12:59:44;6.22;;;2.45;;
79054;SDS011;68452;47.186;-1.528;2023-06-14T13:02:15;5.27;;;2.40;;
79054;SDS011;68452;47.186;-1.528;2023-06-14T13:04:43;4.40;;;1.70;;
79054;SDS011;68452;47.186;-1.528;2023-06-14T13:07:09;4.53;;;1.77;;
79054;SDS011;68452;47.186;-1.528;2023-06-14T13:09:40;7.50;;;2.20;;
79054;SDS011;68452;47.186;-1.528;2023-06-14T13:12:06;5.85;;;2.40;;
79054;SDS011;68452;47.186;-1.528;2023-06-14T13:14:33;4.40;;;2.47;;
79054;SDS011;68452;47.186;-1.528;2023-06-14T13:16:59;5.03;;;1.88;;
79054;SDS011;68452;47.186;-1.528;2023-06-14T13:19:25;5.47;;;1.90;;
79054;SDS011;68452;47.186;-1.528;2023-06-14T13:21:50;6.10;;;2.87;;
79054;SDS011;68452;47.186;-1.528;2023-06-14T13:24:16;3.50;;;2.10;;
79054;SDS011;68452;47.186;-1.528;2023-06-14T13:26:42;3.75;;;1.90;;
79054;SDS011;68452;47.186;-1.528;2023-06-14T13:29:08;4.50;;;1.93;;
79054;SDS011;68452;47.186;-1.528;2023-06-14T13:31:34;2.55;;;1.42;;
79054;SDS011;68452;47.186;-1.528;2023-06-14T13:34:00;3.28;;;2.10;;
79054;SDS011;68452;47.186;-1.528;2023-06-14T13:36:26;4.87;;;2.07;;
79054;SDS011;68452;47.186;-1.528;2023-06-14T13:38:51;3.40;;;2.08;;
79054;SDS011;68452;47.186;-1.528;2023-06-14T13:41:19;4.75;;;2.17;;
79054;SDS011;68452;47.186;-1.528;2023-06-14T13:43:46;4.38;;;1.88;;
79054;SDS011;68452;47.186;-1.528;2023-06-14T13:46:12;4.80;;;2.17;;
79054;SDS011;68452;47.186;-1.528;2023-06-14T13:48:39;3.78;;;1.63;;
79054;SDS011;68452;47.186;-1.528;2023-06-14T13:51:04;3.63;;;1.75;;
79054;SDS011;68452;47.186;-1.528;2023-06-14T13:53:30;4.38;;;2.20;;
79054;SDS011;68452;47.186;-1.528;2023-06-14T13:55:57;3.57;;;2.30;;
79054;SDS011;68452;47.186;-1.528;2023-06-14T13:58:22;7.97;;;1.30;;
79054;SDS011;68452;47.186;-1.528;2023-06-14T14:00:49;3.53;;;1.83;;
79054;SDS011;68452;47.186;-1.528;2023-06-14T14:03:15;5.03;;;1.75;;
79054;SDS011;68452;47.186;-1.528;2023-06-14T14:05:40;5.40;;;2.27;;
79054;SDS011;68452;47.186;-1.528;2023-06-14T14:08:06;4.53;;;2.28;;
79054;SDS011;68452;47.186;-1.528;2023-06-14T14:10:32;5.65;;;1.85;;
79054;SDS011;68452;47.186;-1.528;2023-06-14T14:12:58;4.57;;;2.20;;
79054;SDS011;68452;47.186;-1.528;2023-06-14T14:15:24;3.60;;;1.83;;
79054;SDS011;68452;47.186;-1.528;2023-06-14T14:17:50;3.40;;;1.92;;
79054;SDS011;68452;47.186;-1.528;2023-06-14T14:20:18;5.68;;;3.08;;
79054;SDS011;68452;47.186;-1.528;2023-06-14T14:22:44;4.77;;;1.93;;
79054;SDS011;68452;47.186;-1.528;2023-06-14T14:25:10;3.33;;;1.90;;
79054;SDS011;68452;47.186;-1.528;2023-06-14T14:27:36;5.70;;;3.05;;
79054;SDS011;68452;47.186;-1.528;2023-06-14T14:30:03;3.27;;;1.90;;
79054;SDS011;68452;47.186;-1.528;2023-06-14T14:32:29;3.72;;;1.88;;
79054;SDS011;68452;47.186;-1.528;2023-06-14T14:34:55;5.05;;;2.10;;
79054;SDS011;68452;47.186;-1.528;2023-06-14T14:37:21;3.97;;;1.70;;
79054;SDS011;68452;47.186;-1.528;2023-06-14T14:39:47;5.95;;;1.73;;
79054;SDS011;68452;47.186;-1.528;2023-06-14T14:42:12;7.22;;;2.30;;
79054;SDS011;68452;47.186;-1.528;2023-06-14T14:44:38;6.17;;;2.80;;
79054;SDS011;68452;47.186;-1.528;2023-06-14T14:47:04;4.75;;;2.20;;
79054;SDS011;68452;47.186;-1.528;2023-06-14T14:49:31;4.32;;;2.40;;